createdAt,value
2023-02-13T00:01:09.654Z,51.23
2023-02-13T00:03:41.812Z,51.44
2023-02-13T00:06:11.326Z,51.43
2023-02-13T00:08:39.406Z,51.46
2023-02-13T00:11:07.484Z,51.48
2023-02-13T00:13:35.968Z,51.50
2023-02-13T00:16:05.363Z,51.67
2023-02-13T00:18:36.342Z,51.73
2023-02-13T00:21:10.337Z,51.84
2023-02-13T00:23:40.085Z,51.83
2023-02-13T00:26:10.134Z,51.94
2023-02-13T00:28:42.851Z,51.96
2023-02-13T00:31:16.876Z,51.93
2023-02-13T00:33:45.133Z,52.01
2023-02-13T00:36:18.230Z,51.99
2023-02-13T00:38:46.445Z,52.03
2023-02-13T00:41:17.265Z,52.03
2023-02-13T00:43:45.887Z,52.10
2023-02-13T00:46:14.744Z,51.96
2023-02-13T00:48:43.231Z,52.20
2023-02-13T00:51:11.651Z,52.17
2023-02-13T00:53:40.292Z,52.25
2023-02-13T00:56:09.489Z,52.33
2023-02-13T00:58:39.212Z,52.41
2023-02-13T01:01:07.564Z,52.37
2023-02-13T01:03:36.541Z,52.38
2023-02-13T01:06:05.754Z,52.50
2023-02-13T01:08:34.600Z,52.48
2023-02-13T01:11:03.367Z,52.52
2023-02-13T01:13:32.670Z,52.64
2023-02-13T01:16:01.084Z,52.63
2023-02-13T01:18:31.289Z,52.77
2023-02-13T01:21:04.682Z,52.69
2023-02-13T01:23:43.940Z,53.04
2023-02-13T01:26:23.653Z,53.14
2023-02-13T01:28:53.629Z,53.21
2023-02-13T01:31:22.135Z,53.25
2023-02-13T01:33:51.778Z,53.16
2023-02-13T01:36:26.302Z,53.24
2023-02-13T01:38:56.209Z,53.48
2023-02-13T01:41:26.226Z,53.49
2023-02-13T01:43:57.579Z,53.72
2023-02-13T01:46:35.931Z,53.85
2023-02-13T01:49:10.006Z,54.08
2023-02-13T01:51:38.498Z,54.22
2023-02-13T01:54:10.673Z,54.27
2023-02-13T01:56:45.277Z,54.50
2023-02-13T01:59:17.745Z,54.63
2023-02-13T02:01:53.320Z,54.70
2023-02-13T02:04:31.091Z,54.81
2023-02-13T02:07:05.213Z,54.64
2023-02-13T02:09:39.613Z,54.98
2023-02-13T02:12:36.374Z,55.06
2023-02-13T02:15:07.769Z,55.20
2023-02-13T02:17:36.514Z,55.22
2023-02-13T02:20:30.383Z,55.43
2023-02-13T02:23:23.183Z,55.45
2023-02-13T02:26:37.553Z,55.67
2023-02-13T02:29:21.088Z,55.84
2023-02-13T02:32:01.897Z,55.93
2023-02-13T02:34:41.389Z,56.11
2023-02-13T02:37:15.311Z,56.12
2023-02-13T02:39:51.136Z,56.19
2023-02-13T02:42:41.892Z,56.24
2023-02-13T02:45:28.438Z,56.32
2023-02-13T02:48:46.710Z,56.31
2023-02-13T02:51:31.617Z,56.47
2023-02-13T02:54:33.094Z,56.46
2023-02-13T02:57:13.258Z,56.55
2023-02-13T03:00:01.369Z,56.59
2023-02-13T03:02:49.477Z,56.69
2023-02-13T03:05:41.496Z,56.63
2023-02-13T03:08:09.759Z,56.74
2023-02-13T03:10:56.886Z,56.93
2023-02-13T03:13:44.145Z,56.92
2023-02-13T03:16:35.411Z,57.07
2023-02-13T03:19:22.596Z,57.28
2023-02-13T03:22:21.601Z,57.42
2023-02-13T03:25:07.752Z,57.48
2023-02-13T03:28:23.826Z,57.62
2023-02-13T03:31:14.353Z,57.60
2023-02-13T03:33:57.512Z,57.71
2023-02-13T03:37:02.795Z,57.70
2023-02-13T03:39:40.388Z,57.97
2023-02-13T03:42:18.924Z,57.97
2023-02-13T03:45:12.759Z,58.03
2023-02-13T03:47:42.068Z,57.97
2023-02-13T03:50:10.607Z,58.10
2023-02-13T03:52:54.229Z,58.07
2023-02-13T03:55:45.186Z,58.08
2023-02-13T03:58:50.299Z,58.10
2023-02-13T04:01:19.371Z,58.04
2023-02-13T04:04:09.812Z,58.18
2023-02-13T04:07:09.076Z,58.06
2023-02-13T04:09:39.300Z,58.12
2023-02-13T04:12:10.471Z,58.05
2023-02-13T04:14:50.594Z,58.03
2023-02-13T04:17:25.199Z,57.96
2023-02-13T04:19:53.398Z,57.87
2023-02-13T04:22:21.472Z,57.99
2023-02-13T04:24:49.844Z,57.88
2023-02-13T04:27:18.586Z,57.72
2023-02-13T04:29:47.047Z,57.78
2023-02-13T04:32:17.162Z,57.68
2023-02-13T04:34:45.281Z,57.70
2023-02-13T04:37:13.922Z,57.73
2023-02-13T04:39:42.526Z,57.73
2023-02-13T04:42:10.804Z,57.75
2023-02-13T04:44:39.506Z,57.85
2023-02-13T04:47:07.666Z,57.92
2023-02-13T04:49:36.173Z,57.79
2023-02-13T04:52:04.844Z,57.91
2023-02-13T04:54:33.738Z,57.87
2023-02-13T04:57:02.018Z,58.06
2023-02-13T04:59:31.431Z,58.10
2023-02-13T05:02:00.239Z,58.22
2023-02-13T05:04:29.177Z,58.38
2023-02-13T05:06:57.603Z,58.32
2023-02-13T05:09:25.879Z,58.28
2023-02-13T05:11:54.333Z,58.29
2023-02-13T05:14:22.530Z,58.27
2023-02-13T05:16:50.993Z,58.43
2023-02-13T05:19:24.728Z,58.34
2023-02-13T05:22:11.443Z,58.31
2023-02-13T05:24:39.726Z,58.27
2023-02-13T05:27:07.999Z,58.31
2023-02-13T05:29:36.274Z,58.43
2023-02-13T05:32:04.649Z,58.36
2023-02-13T05:34:33.541Z,58.47
2023-02-13T05:37:01.874Z,58.39
2023-02-13T05:39:30.327Z,58.55
2023-02-13T05:41:58.606Z,58.52
2023-02-13T05:44:26.958Z,58.49
2023-02-13T05:46:55.173Z,58.46
2023-02-13T05:49:28.774Z,58.25
2023-02-13T05:51:57.273Z,58.61
2023-02-13T05:54:25.852Z,58.42
2023-02-13T05:56:54.339Z,58.49
2023-02-13T05:59:23.984Z,58.49
2023-02-13T06:01:52.942Z,58.48
2023-02-13T06:04:21.218Z,58.43
2023-02-13T06:06:49.510Z,58.57
2023-02-13T06:09:18.003Z,58.58
2023-02-13T06:11:48.432Z,58.62
2023-02-13T06:14:16.800Z,58.59
2023-02-13T06:16:50.019Z,58.61
2023-02-13T06:19:18.582Z,58.63
2023-02-13T06:21:46.764Z,58.66
2023-02-13T06:24:15.157Z,58.61
2023-02-13T06:26:43.531Z,58.67
2023-02-13T06:29:12.888Z,58.66
2023-02-13T06:31:41.277Z,58.61
2023-02-13T06:34:09.826Z,58.59
2023-02-13T06:36:38.742Z,58.46
2023-02-13T06:39:07.098Z,58.31
2023-02-13T06:41:35.983Z,58.29
2023-02-13T06:44:07.900Z,58.20
2023-02-13T06:46:36.550Z,57.94
2023-02-13T06:49:04.704Z,57.79
2023-02-13T06:51:33.194Z,57.73
2023-02-13T06:54:01.488Z,57.75
2023-02-13T06:56:30.574Z,57.82
2023-02-13T06:58:58.881Z,57.70
2023-02-13T07:01:27.286Z,57.63
2023-02-13T07:03:55.724Z,57.70
2023-02-13T07:06:23.908Z,57.55
2023-02-13T07:08:56.008Z,57.51
2023-02-13T07:11:24.904Z,57.23
2023-02-13T07:13:53.662Z,56.81
2023-02-13T07:16:26.469Z,56.39
2023-02-13T07:18:55.634Z,55.99
2023-02-13T07:21:23.830Z,55.32
2023-02-13T07:23:52.721Z,55.03
2023-02-13T07:26:21.009Z,54.97
2023-02-13T07:28:51.365Z,54.93
2023-02-13T07:31:23.266Z,54.73
2023-02-13T07:33:52.697Z,54.90
2023-02-13T07:36:20.958Z,54.86
2023-02-13T07:38:49.674Z,54.96
2023-02-13T07:41:18.156Z,55.01
2023-02-13T07:43:46.334Z,55.18
2023-02-13T07:46:14.925Z,55.26
2023-02-13T07:48:43.011Z,55.27
2023-02-13T07:51:11.350Z,55.30
2023-02-13T07:53:39.580Z,55.14
2023-02-13T07:56:09.295Z,55.00
2023-02-13T07:58:38.175Z,54.84
2023-02-13T08:01:10.916Z,54.68
2023-02-13T08:03:39.251Z,54.77
2023-02-13T08:06:08.348Z,54.76
2023-02-13T08:08:38.490Z,54.86
2023-02-13T08:11:46.038Z,54.80
2023-02-13T08:14:14.528Z,54.72
2023-02-13T08:16:47.292Z,54.52
2023-02-13T08:19:15.899Z,54.34
2023-02-13T08:21:44.174Z,54.04
2023-02-13T08:24:13.582Z,53.87
2023-02-13T08:26:42.068Z,54.00
2023-02-13T08:29:11.498Z,54.14
2023-02-13T08:31:39.791Z,54.16
2023-02-13T08:34:07.992Z,54.25
2023-02-13T08:36:36.623Z,54.41
2023-02-13T08:39:05.119Z,54.52
2023-02-13T08:41:33.506Z,54.77
2023-02-13T08:44:05.658Z,54.95
2023-02-13T08:46:37.419Z,55.07
2023-02-13T08:49:07.759Z,55.16
2023-02-13T08:51:36.544Z,55.16
2023-02-13T08:54:05.133Z,55.30
2023-02-13T08:56:33.342Z,55.51
2023-02-13T08:59:01.701Z,55.51
2023-02-13T09:01:30.144Z,55.79
2023-02-13T09:03:58.560Z,56.12
2023-02-13T09:06:27.051Z,56.42
2023-02-13T09:08:55.249Z,56.68
2023-02-13T09:11:23.740Z,57.07
2023-02-13T09:13:54.144Z,57.24
2023-02-13T09:16:22.845Z,57.46
2023-02-13T09:18:51.322Z,57.68
2023-02-13T09:21:21.043Z,57.88
2023-02-13T09:23:49.522Z,58.14
2023-02-13T09:26:20.681Z,58.35
2023-02-13T09:28:49.124Z,58.40
2023-02-13T09:31:20.269Z,58.57
2023-02-13T09:33:50.084Z,58.76
2023-02-13T09:36:22.585Z,58.87
2023-02-13T09:38:55.177Z,58.90
2023-02-13T09:41:34.662Z,59.05
2023-02-13T09:44:39.363Z,59.05
2023-02-13T09:47:36.610Z,59.10
2023-02-13T09:50:10.881Z,59.00
2023-02-13T09:52:39.346Z,59.00
2023-02-13T09:55:39.700Z,59.07
2023-02-13T09:58:22.458Z,59.07
2023-02-13T10:00:53.633Z,59.09
2023-02-13T10:03:32.768Z,59.24
2023-02-13T10:06:04.457Z,59.25
2023-02-13T10:08:39.488Z,59.26
2023-02-13T10:11:29.845Z,59.32
2023-02-13T10:14:15.628Z,59.44
2023-02-13T10:17:02.226Z,59.45
2023-02-13T10:20:02.141Z,59.47
2023-02-13T10:22:45.338Z,59.47
2023-02-13T10:25:17.589Z,59.56
2023-02-13T10:27:48.253Z,59.65
2023-02-13T10:30:24.560Z,59.72
2023-02-13T10:33:18.709Z,59.78
2023-02-13T10:35:59.823Z,59.97
2023-02-13T10:38:32.771Z,60.11
2023-02-13T10:41:06.815Z,60.15
2023-02-13T10:43:44.923Z,60.22
2023-02-13T10:46:31.671Z,60.48
2023-02-13T10:49:09.057Z,60.57
2023-02-13T10:51:50.243Z,60.60
2023-02-13T10:54:57.030Z,60.60
2023-02-13T10:57:50.451Z,60.80
2023-02-13T11:00:19.546Z,60.91
2023-02-13T11:02:47.716Z,60.87
2023-02-13T11:05:24.513Z,60.84
2023-02-13T11:07:53.293Z,60.97
2023-02-13T11:10:25.469Z,61.06
2023-02-13T11:12:57.523Z,61.08
2023-02-13T11:15:28.470Z,61.17
2023-02-13T11:17:59.431Z,61.19
2023-02-13T11:20:39.845Z,61.16
2023-02-13T11:23:38.948Z,61.13
2023-02-13T11:26:36.511Z,61.10
2023-02-13T11:29:06.821Z,61.10
2023-02-13T11:31:36.629Z,61.08
2023-02-13T11:34:25.998Z,61.23
2023-02-13T11:37:10.211Z,61.32
2023-02-13T11:39:44.162Z,61.37
2023-02-13T11:42:32.918Z,61.49
2023-02-13T11:45:20.732Z,61.60
2023-02-13T11:47:48.929Z,61.72
2023-02-13T11:50:35.211Z,61.63
2023-02-13T11:53:06.254Z,61.69
2023-02-13T11:55:36.180Z,61.72
2023-02-13T11:58:11.452Z,61.83
2023-02-13T12:00:41.642Z,61.85
2023-02-13T12:03:22.235Z,61.83
2023-02-13T12:06:10.749Z,61.89
2023-02-13T12:08:42.316Z,61.96
2023-02-13T12:11:21.557Z,62.07
2023-02-13T12:13:50.384Z,62.25
2023-02-13T12:16:34.791Z,62.37
2023-02-13T12:19:08.374Z,62.57
2023-02-13T12:22:28.752Z,62.71
2023-02-13T12:25:15.257Z,63.00
2023-02-13T12:28:12.094Z,63.22
2023-02-13T12:30:47.037Z,63.32
2023-02-13T12:33:40.657Z,63.48
2023-02-13T12:36:26.899Z,63.75
2023-02-13T12:39:07.364Z,63.80
2023-02-13T12:41:38.396Z,63.95
2023-02-13T12:44:06.635Z,63.94
2023-02-13T12:46:41.084Z,63.93
2023-02-13T12:49:17.211Z,63.92
2023-02-13T12:52:06.373Z,63.85
2023-02-13T12:55:09.257Z,63.94
2023-02-13T12:57:47.545Z,64.03
2023-02-13T13:00:27.705Z,64.17
2023-02-13T13:03:23.102Z,64.23
2023-02-13T13:06:03.559Z,64.41
2023-02-13T13:09:13.390Z,64.61
2023-02-13T13:12:01.641Z,64.64
2023-02-13T13:15:08.278Z,64.78
2023-02-13T13:18:12.523Z,64.97
2023-02-13T13:20:58.571Z,65.03
2023-02-13T13:23:33.947Z,65.22
2023-02-13T13:26:25.225Z,65.37
2023-02-13T13:28:55.206Z,65.58
2023-02-13T13:31:28.008Z,65.72
2023-02-13T13:34:02.354Z,65.84
2023-02-13T13:36:35.711Z,66.08
2023-02-13T13:39:26.847Z,66.11
2023-02-13T13:42:07.064Z,66.26
2023-02-13T13:44:47.447Z,66.29
2023-02-13T13:47:32.826Z,66.36
2023-02-13T13:50:01.141Z,66.42
2023-02-13T13:52:30.422Z,66.50
2023-02-13T13:55:00.727Z,66.50
2023-02-13T13:57:34.537Z,66.57
2023-02-13T14:00:08.992Z,66.62
2023-02-13T14:02:58.568Z,66.66
2023-02-13T14:05:33.508Z,66.69
2023-02-13T14:08:40.040Z,66.66
2023-02-13T14:11:36.049Z,66.80
2023-02-13T14:14:28.866Z,66.77
2023-02-13T14:17:02.274Z,66.91
2023-02-13T14:19:38.233Z,66.83
2023-02-13T14:22:18.958Z,66.97
2023-02-13T14:25:05.534Z,66.99
2023-02-13T14:27:37.979Z,67.02
2023-02-13T14:30:07.999Z,67.09
2023-02-13T14:32:41.341Z,67.13
2023-02-13T14:35:13.254Z,67.21
2023-02-13T14:37:52.325Z,67.21
2023-02-13T14:40:20.543Z,67.20
2023-02-13T14:42:56.580Z,67.28
2023-02-13T14:45:28.590Z,67.23
2023-02-13T14:47:57.565Z,67.26
2023-02-13T14:50:31.121Z,67.23
2023-02-13T14:53:01.430Z,67.23
2023-02-13T14:55:41.753Z,67.31
2023-02-13T14:58:14.791Z,67.21
2023-02-13T15:01:24.443Z,67.24
2023-02-13T15:04:00.265Z,67.27
2023-02-13T15:06:34.094Z,67.32
2023-02-13T15:09:05.160Z,67.32
2023-02-13T15:11:38.330Z,67.43
2023-02-13T15:14:22.915Z,67.34
2023-02-13T15:16:57.188Z,67.48
2023-02-13T15:19:25.302Z,67.59
2023-02-13T15:22:01.094Z,67.65
2023-02-13T15:24:46.066Z,67.70
2023-02-13T15:27:19.999Z,67.80
2023-02-13T15:29:55.640Z,67.88
2023-02-13T15:32:33.697Z,67.93
2023-02-13T15:35:01.999Z,68.01
2023-02-13T15:37:30.866Z,68.09
2023-02-13T15:40:24.453Z,68.10
2023-02-13T15:42:53.823Z,68.19
2023-02-13T15:45:23.628Z,68.21
2023-02-13T15:47:52.035Z,68.26
2023-02-13T15:50:33.404Z,68.40
2023-02-13T15:53:05.911Z,68.41
2023-02-13T15:55:36.927Z,68.46
2023-02-13T15:58:04.935Z,68.61
2023-02-13T16:00:35.444Z,68.79
2023-02-13T16:03:04.849Z,68.95
2023-02-13T16:05:41.493Z,69.14
2023-02-13T16:08:29.855Z,69.26
2023-02-13T16:11:11.233Z,69.41
2023-02-13T16:13:39.618Z,69.59
2023-02-13T16:16:11.039Z,69.79
2023-02-13T16:18:39.975Z,69.97
2023-02-13T16:21:11.006Z,70.07
2023-02-13T16:23:39.890Z,70.23
2023-02-13T16:26:08.181Z,70.34
2023-02-13T16:28:38.100Z,70.41
2023-02-13T16:31:06.353Z,70.52
2023-02-13T16:33:38.269Z,70.66
2023-02-13T16:36:09.603Z,70.71
2023-02-13T16:38:41.190Z,70.84
2023-02-13T16:41:25.908Z,70.86
2023-02-13T16:43:55.834Z,70.90
2023-02-13T16:46:40.216Z,71.04
2023-02-13T16:49:08.471Z,71.08
2023-02-13T16:51:40.629Z,71.14
2023-02-13T16:54:12.403Z,71.25
2023-02-13T16:56:51.218Z,71.35
2023-02-13T16:59:22.073Z,71.32
2023-02-13T17:02:29.951Z,71.40
2023-02-13T17:05:08.241Z,71.47
2023-02-13T17:07:38.266Z,71.62
2023-02-13T17:10:27.465Z,71.74
2023-02-13T17:12:56.864Z,71.81
2023-02-13T17:15:26.855Z,71.89
2023-02-13T17:17:58.203Z,71.81
2023-02-13T17:20:31.905Z,71.67
2023-02-13T17:23:07.032Z,71.66
2023-02-13T17:25:36.858Z,71.67
2023-02-13T17:28:21.189Z,71.71
2023-02-13T17:30:50.540Z,71.74
2023-02-13T17:33:29.474Z,71.76
2023-02-13T17:35:57.623Z,71.74
2023-02-13T17:38:25.992Z,71.75
2023-02-13T17:40:54.591Z,71.77
2023-02-13T17:43:23.285Z,71.74
2023-02-13T17:45:51.496Z,71.74
2023-02-13T17:48:20.148Z,71.80
2023-02-13T17:50:49.555Z,71.79
2023-02-13T17:53:30.021Z,71.80
2023-02-13T17:56:01.267Z,71.79
2023-02-13T17:58:30.233Z,71.76
2023-02-13T18:00:58.923Z,71.80
2023-02-13T18:03:27.732Z,71.83
2023-02-13T18:05:57.220Z,72.10
2023-02-13T18:08:26.651Z,71.98
2023-02-13T18:10:56.743Z,71.98
2023-02-13T18:13:26.384Z,71.95
2023-02-13T18:15:54.709Z,71.90
2023-02-13T18:18:23.458Z,71.94
2023-02-13T18:20:56.358Z,71.95
2023-02-13T18:23:26.060Z,71.86
2023-02-13T18:25:54.238Z,71.82
2023-02-13T18:28:22.722Z,71.89
2023-02-13T18:30:51.609Z,71.88
2023-02-13T18:33:19.802Z,71.87
2023-02-13T18:35:48.184Z,71.84
2023-02-13T18:38:16.361Z,71.87
2023-02-13T18:40:45.356Z,71.84
2023-02-13T18:43:13.728Z,71.83
2023-02-13T18:45:41.885Z,71.80
2023-02-13T18:48:12.043Z,71.83
2023-02-13T18:50:41.248Z,71.80
2023-02-13T18:53:09.730Z,71.76
2023-02-13T18:55:38.017Z,71.82
2023-02-13T18:58:06.498Z,71.85
2023-02-13T19:00:34.666Z,71.81
2023-02-13T19:03:02.929Z,71.80
2023-02-13T19:05:34.310Z,71.77
2023-02-13T19:08:02.819Z,71.74
2023-02-13T19:10:31.423Z,71.69
2023-02-13T19:12:59.845Z,71.61
2023-02-13T19:15:30.750Z,71.62
2023-02-13T19:17:59.199Z,71.49
2023-02-13T19:20:27.581Z,71.53
2023-02-13T19:22:56.680Z,71.53
2023-02-13T19:25:24.757Z,71.52
2023-02-13T19:27:53.140Z,71.52
2023-02-13T19:30:22.888Z,71.44
2023-02-13T19:32:54.423Z,71.49
2023-02-13T19:35:23.438Z,71.49
2023-02-13T19:37:51.655Z,71.50
2023-02-13T19:40:19.969Z,71.52
2023-02-13T19:42:49.590Z,71.44
2023-02-13T19:45:17.642Z,71.41
2023-02-13T19:47:45.838Z,71.36
2023-02-13T19:50:16.707Z,71.33
2023-02-13T19:52:44.876Z,71.29
2023-02-13T19:55:13.349Z,71.23
2023-02-13T19:57:41.472Z,71.23
2023-02-13T20:00:26.283Z,71.17
2023-02-13T20:03:01.108Z,71.19
2023-02-13T20:05:39.928Z,71.23
2023-02-13T20:08:10.118Z,71.19
2023-02-13T20:10:43.151Z,71.20
2023-02-13T20:13:15.940Z,71.15
2023-02-13T20:15:44.642Z,71.13
2023-02-13T20:18:13.000Z,71.15
2023-02-13T20:20:41.590Z,71.14
2023-02-13T20:23:09.832Z,71.05
2023-02-13T20:25:38.860Z,71.08
2023-02-13T20:28:11.278Z,71.02
2023-02-13T20:30:43.273Z,71.00
2023-02-13T20:33:11.836Z,71.01
2023-02-13T20:35:43.167Z,70.96
2023-02-13T20:38:11.622Z,70.95
2023-02-13T20:40:39.775Z,70.99
2023-02-13T20:43:27.737Z,70.98
2023-02-13T20:45:56.478Z,70.97
2023-02-13T20:48:25.161Z,71.00
2023-02-13T20:51:00.604Z,70.99
2023-02-13T20:53:29.256Z,70.85
2023-02-13T20:56:11.256Z,70.92
2023-02-13T20:58:40.578Z,70.89
2023-02-13T21:01:13.774Z,70.81
2023-02-13T21:03:42.451Z,70.81
2023-02-13T21:06:13.135Z,70.73
2023-02-13T21:08:42.878Z,70.73
2023-02-13T21:11:11.169Z,70.75
2023-02-13T21:13:40.467Z,70.71
2023-02-13T21:16:16.302Z,70.63
2023-02-13T21:18:53.215Z,70.60
2023-02-13T21:21:22.321Z,70.56
2023-02-13T21:23:54.462Z,70.58
2023-02-13T21:26:22.538Z,70.52
2023-02-13T21:28:50.716Z,70.46
2023-02-13T21:31:25.699Z,70.48
2023-02-13T21:33:53.844Z,70.42
2023-02-13T21:36:24.617Z,70.44
2023-02-13T21:38:52.747Z,70.47
2023-02-13T21:41:21.446Z,70.43
2023-02-13T21:43:50.441Z,70.38
2023-02-13T21:46:19.630Z,70.33
2023-02-13T21:48:48.401Z,70.36
2023-02-13T21:51:19.565Z,70.36
2023-02-13T21:53:48.032Z,70.32
2023-02-13T21:56:18.761Z,70.30
2023-02-13T21:58:47.413Z,70.28
2023-02-13T22:01:27.321Z,70.25
2023-02-13T22:04:00.195Z,70.14
2023-02-13T22:06:30.037Z,70.15
2023-02-13T22:09:03.125Z,70.20
2023-02-13T22:11:32.047Z,70.11
2023-02-13T22:14:02.767Z,70.04
2023-02-13T22:16:32.232Z,69.98
2023-02-13T22:19:03.127Z,69.96
2023-02-13T22:21:32.639Z,69.88
2023-02-13T22:24:00.918Z,69.81
2023-02-13T22:26:31.079Z,69.78
2023-02-13T22:29:01.073Z,69.81
2023-02-13T22:31:29.418Z,69.77
2023-02-13T22:34:03.778Z,69.75
2023-02-13T22:36:34.299Z,69.74
2023-02-13T22:39:02.695Z,69.68
2023-02-13T22:41:32.301Z,69.62
2023-02-13T22:44:00.577Z,69.58
2023-02-13T22:46:30.567Z,69.48
2023-02-13T22:48:59.409Z,69.45
2023-02-13T22:51:30.816Z,69.37
2023-02-13T22:54:00.096Z,69.33
2023-02-13T22:56:29.028Z,69.26
2023-02-13T22:58:58.562Z,69.27
2023-02-13T23:01:27.433Z,69.26
2023-02-13T23:03:56.331Z,69.22
2023-02-13T23:06:25.069Z,69.15
2023-02-13T23:08:53.958Z,69.17
2023-02-13T23:11:46.509Z,69.17
2023-02-13T23:14:15.447Z,69.08
2023-02-13T23:17:03.169Z,68.96
2023-02-13T23:19:31.869Z,68.98
2023-02-13T23:22:00.263Z,68.91
2023-02-13T23:24:30.926Z,68.89
2023-02-13T23:26:59.903Z,68.84
2023-02-13T23:29:28.271Z,68.88
2023-02-13T23:31:56.799Z,68.80
2023-02-13T23:34:25.229Z,68.80
2023-02-13T23:36:53.403Z,68.84
2023-02-13T23:39:21.815Z,68.78
2023-02-13T23:41:49.964Z,68.80
2023-02-13T23:44:18.484Z,68.70
2023-02-13T23:46:47.281Z,68.78
2023-02-13T23:49:16.038Z,68.72
2023-02-13T23:51:45.087Z,68.70
2023-02-13T23:54:23.240Z,68.66
2023-02-13T23:56:52.136Z,68.63
2023-02-13T23:59:20.546Z,68.62
